createdAt,value
2023-02-22T00:02:29.189Z,6.36
2023-02-22T00:04:57.938Z,6.34
2023-02-22T00:07:26.517Z,6.31
2023-02-22T00:09:57.037Z,6.33
2023-02-22T00:12:29.214Z,6.31
2023-02-22T00:14:57.413Z,6.31
2023-02-22T00:17:26.559Z,6.29
2023-02-22T00:19:54.814Z,6.27
2023-02-22T00:22:23.566Z,6.23
2023-02-22T00:24:53.727Z,6.21
2023-02-22T00:27:27.576Z,6.20
2023-02-22T00:29:57.290Z,6.16
2023-02-22T00:32:27.897Z,6.11
2023-02-22T00:34:57.089Z,6.13
2023-02-22T00:37:26.729Z,6.12
2023-02-22T00:39:55.096Z,6.08
2023-02-22T00:42:23.096Z,6.04
2023-02-22T00:44:52.674Z,6.06
2023-02-22T00:47:20.662Z,6.05
2023-02-22T00:49:49.180Z,6.05
2023-02-22T00:52:17.325Z,6.02
2023-02-22T00:54:45.326Z,5.97
2023-02-22T00:57:13.385Z,5.91
2023-02-22T00:59:41.408Z,5.85
2023-02-22T01:02:09.630Z,5.81
2023-02-22T01:04:37.775Z,5.77
2023-02-22T01:07:06.338Z,5.72
2023-02-22T01:09:35.104Z,5.68
2023-02-22T01:12:03.228Z,5.65
2023-02-22T01:14:31.202Z,5.61
2023-02-22T01:16:59.149Z,5.60
2023-02-22T01:19:27.117Z,5.55
2023-02-22T01:21:55.103Z,5.50
2023-02-22T01:24:23.059Z,5.50
2023-02-22T01:26:52.791Z,5.55
2023-02-22T01:29:21.304Z,5.56
2023-02-22T01:31:54.885Z,5.52
2023-02-22T01:34:24.290Z,5.51
2023-02-22T01:36:52.239Z,5.45
2023-02-22T01:39:20.290Z,5.41
2023-02-22T01:41:48.238Z,5.37
2023-02-22T01:44:35.287Z,5.35
2023-02-22T01:47:05.526Z,5.30
2023-02-22T01:49:40.369Z,5.24
2023-02-22T01:52:11.934Z,5.19
2023-02-22T01:54:50.552Z,5.17
2023-02-22T01:57:24.197Z,5.15
2023-02-22T01:59:58.259Z,5.13
2023-02-22T02:02:27.340Z,5.12
2023-02-22T02:04:57.655Z,5.14
2023-02-22T02:07:29.645Z,5.17
2023-02-22T02:09:59.216Z,5.20
2023-02-22T02:12:33.366Z,5.22
2023-02-22T02:15:20.148Z,5.23
2023-02-22T02:17:51.308Z,5.25
2023-02-22T02:20:37.708Z,5.27
2023-02-22T02:23:38.161Z,5.25
2023-02-22T02:26:38.173Z,5.20
2023-02-22T02:29:43.886Z,5.14
2023-02-22T02:32:23.161Z,5.12
2023-02-22T02:34:51.224Z,5.07
2023-02-22T02:37:35.611Z,5.02
2023-02-22T02:40:25.637Z,5.01
2023-02-22T02:42:59.390Z,4.99
2023-02-22T02:46:16.800Z,4.96
2023-02-22T02:48:56.980Z,4.99
2023-02-22T02:51:29.381Z,4.97
2023-02-22T02:53:58.122Z,4.90
2023-02-22T02:56:26.137Z,4.84
2023-02-22T02:58:54.788Z,4.83
2023-02-22T03:01:36.170Z,4.78
2023-02-22T03:04:49.010Z,4.71
2023-02-22T03:07:30.253Z,4.70
2023-02-22T03:10:24.220Z,4.64
2023-02-22T03:13:15.825Z,4.57
2023-02-22T03:15:57.782Z,4.49
2023-02-22T03:18:34.305Z,4.51
2023-02-22T03:21:22.037Z,4.55
2023-02-22T03:24:14.832Z,4.55
2023-02-22T03:26:47.715Z,4.52
2023-02-22T03:29:18.774Z,4.50
2023-02-22T03:31:52.299Z,4.45
2023-02-22T03:34:27.599Z,4.37
2023-02-22T03:37:04.079Z,4.32
2023-02-22T03:39:37.738Z,4.30
2023-02-22T03:42:10.003Z,4.27
2023-02-22T03:44:41.503Z,4.21
2023-02-22T03:47:17.624Z,4.23
2023-02-22T03:49:56.113Z,4.28
2023-02-22T03:52:24.349Z,4.27
2023-02-22T03:54:53.786Z,4.24
2023-02-22T03:57:29.166Z,4.24
2023-02-22T04:00:07.899Z,4.25
2023-02-22T04:02:45.088Z,4.22
2023-02-22T04:05:15.708Z,4.21
2023-02-22T04:07:43.797Z,4.22
2023-02-22T04:10:15.428Z,4.16
2023-02-22T04:12:44.729Z,4.18
2023-02-22T04:15:15.673Z,4.14
2023-02-22T04:17:43.910Z,4.12
2023-02-22T04:20:19.779Z,4.10
2023-02-22T04:23:00.641Z,4.10
2023-02-22T04:25:29.566Z,4.13
2023-02-22T04:27:58.309Z,4.10
2023-02-22T04:30:38.743Z,4.07
2023-02-22T04:33:10.856Z,4.03
2023-02-22T04:35:38.868Z,4.02
2023-02-22T04:38:09.346Z,4.02
2023-02-22T04:40:38.564Z,4.01
2023-02-22T04:43:07.848Z,3.99
2023-02-22T04:45:36.134Z,3.97
2023-02-22T04:48:05.356Z,4.00
2023-02-22T04:50:33.320Z,4.04
2023-02-22T04:53:01.299Z,4.04
2023-02-22T04:55:29.649Z,4.07
2023-02-22T04:57:57.941Z,4.13
2023-02-22T05:00:26.246Z,4.20
2023-02-22T05:02:59.139Z,4.26
2023-02-22T05:05:27.165Z,4.27
2023-02-22T05:07:54.952Z,4.25
2023-02-22T05:10:22.875Z,4.19
2023-02-22T05:12:51.800Z,4.09
2023-02-22T05:15:21.736Z,4.00
2023-02-22T05:17:49.578Z,3.93
2023-02-22T05:20:27.936Z,3.92
2023-02-22T05:22:57.212Z,3.96
2023-02-22T05:25:26.318Z,3.97
2023-02-22T05:27:57.446Z,4.01
2023-02-22T05:30:26.877Z,4.04
2023-02-22T05:32:54.862Z,4.05
2023-02-22T05:35:23.689Z,4.11
2023-02-22T05:37:52.563Z,4.14
2023-02-22T05:40:25.309Z,4.17
2023-02-22T05:42:53.976Z,4.20
2023-02-22T05:45:24.232Z,4.20
2023-02-22T05:47:52.757Z,4.22
2023-02-22T05:50:21.735Z,4.22
2023-02-22T05:52:49.639Z,4.22
2023-02-22T05:55:20.876Z,4.27
2023-02-22T05:57:48.876Z,4.30
2023-02-22T06:00:18.676Z,4.37
2023-02-22T06:02:46.676Z,4.38
2023-02-22T06:05:17.985Z,4.44
2023-02-22T06:07:45.958Z,4.48
2023-02-22T06:10:14.013Z,4.54
2023-02-22T06:12:41.934Z,4.56
2023-02-22T06:15:10.710Z,4.57
2023-02-22T06:17:39.623Z,4.60
2023-02-22T06:20:10.182Z,4.62
2023-02-22T06:22:41.226Z,4.67
2023-02-22T06:25:13.068Z,4.72
2023-02-22T06:27:41.057Z,4.79
2023-02-22T06:30:13.326Z,4.88
2023-02-22T06:32:41.544Z,4.93
2023-02-22T06:35:10.129Z,5.01
2023-02-22T06:37:39.966Z,5.07
2023-02-22T06:40:08.696Z,5.16
2023-02-22T06:42:37.251Z,5.20
2023-02-22T06:45:05.962Z,5.31
2023-02-22T06:47:37.498Z,5.55
2023-02-22T06:50:05.814Z,5.91
2023-02-22T06:52:33.866Z,6.22
2023-02-22T06:55:01.910Z,6.45
2023-02-22T06:57:29.807Z,6.60
2023-02-22T06:59:57.720Z,6.71
2023-02-22T07:02:25.548Z,6.82
2023-02-22T07:04:53.440Z,6.92
2023-02-22T07:07:23.766Z,6.98
2023-02-22T07:09:51.930Z,7.02
2023-02-22T07:12:19.921Z,7.09
2023-02-22T07:14:47.841Z,7.15
2023-02-22T07:17:15.889Z,7.20
2023-02-22T07:19:43.768Z,7.24
2023-02-22T07:22:11.755Z,7.27
2023-02-22T07:24:41.299Z,7.31
2023-02-22T07:27:09.272Z,7.35
2023-02-22T07:29:37.153Z,7.40
2023-02-22T07:32:06.304Z,7.44
2023-02-22T07:34:34.225Z,7.45
2023-02-22T07:37:02.183Z,7.51
2023-02-22T07:39:30.131Z,7.56
2023-02-22T07:41:59.358Z,7.61
2023-02-22T07:44:31.034Z,7.69
2023-02-22T07:46:59.058Z,7.73
2023-02-22T07:49:27.017Z,7.78
2023-02-22T07:51:55.090Z,7.78
2023-02-22T07:54:23.513Z,7.80
2023-02-22T07:56:51.398Z,7.82
2023-02-22T07:59:19.753Z,7.83
2023-02-22T08:01:50.516Z,7.85
2023-02-22T08:04:18.742Z,7.90
2023-02-22T08:06:50.394Z,7.93
2023-02-22T08:09:18.306Z,7.98
2023-02-22T08:11:46.123Z,8.02
2023-02-22T08:14:16.613Z,8.07
2023-02-22T08:16:44.668Z,8.08
2023-02-22T08:19:12.583Z,8.13
2023-02-22T08:21:40.431Z,8.19
2023-02-22T08:24:08.397Z,8.20
2023-02-22T08:26:36.376Z,8.17
2023-02-22T08:29:04.289Z,8.21
2023-02-22T08:31:32.223Z,8.25
2023-02-22T08:34:01.319Z,8.29
2023-02-22T08:36:29.644Z,8.35
2023-02-22T08:38:57.571Z,8.41
2023-02-22T08:41:25.615Z,8.47
2023-02-22T08:43:53.671Z,8.52
2023-02-22T08:46:21.530Z,8.59
2023-02-22T08:48:51.133Z,8.69
2023-02-22T08:51:19.573Z,8.79
2023-02-22T08:53:47.514Z,8.87
2023-02-22T08:56:15.446Z,8.93
2023-02-22T08:58:43.445Z,8.97
2023-02-22T09:01:12.115Z,9.04
2023-02-22T09:03:41.002Z,9.10
2023-02-22T09:06:09.046Z,9.15
2023-02-22T09:08:37.281Z,9.14
2023-02-22T09:11:05.124Z,9.14
2023-02-22T09:13:32.958Z,9.17
2023-02-22T09:16:00.964Z,9.18
2023-02-22T09:18:39.146Z,9.19
2023-02-22T09:21:12.544Z,9.20
2023-02-22T09:23:41.710Z,9.25
2023-02-22T09:26:10.469Z,9.29
2023-02-22T09:28:38.606Z,9.33
2023-02-22T09:31:06.430Z,9.39
2023-02-22T09:33:34.320Z,9.44
2023-02-22T09:36:02.828Z,9.48
2023-02-22T09:38:32.715Z,9.50
2023-02-22T09:41:25.444Z,9.55
2023-02-22T09:44:02.308Z,9.61
2023-02-22T09:46:38.575Z,9.67
2023-02-22T09:49:25.069Z,9.73
2023-02-22T09:52:05.289Z,9.75
2023-02-22T09:54:39.790Z,9.75
2023-02-22T09:57:16.271Z,9.74
2023-02-22T10:00:13.789Z,9.70
2023-02-22T10:02:54.602Z,9.69
2023-02-22T10:05:39.864Z,9.69
2023-02-22T10:08:19.079Z,9.69
2023-02-22T10:10:55.201Z,9.72
2023-02-22T10:13:43.566Z,9.74
2023-02-22T10:16:25.522Z,9.74
2023-02-22T10:19:14.622Z,9.77
2023-02-22T10:22:07.804Z,9.76
2023-02-22T10:24:57.365Z,9.73
2023-02-22T10:27:34.264Z,9.72
2023-02-22T10:30:25.361Z,9.71
2023-02-22T10:33:20.993Z,9.71
2023-02-22T10:35:52.478Z,9.73
2023-02-22T10:38:23.773Z,9.76
2023-02-22T10:41:10.161Z,9.83
2023-02-22T10:43:41.075Z,9.93
2023-02-22T10:46:12.631Z,9.97
2023-02-22T10:48:43.680Z,9.95
2023-02-22T10:51:12.189Z,9.96
2023-02-22T10:53:41.006Z,9.98
2023-02-22T10:56:18.685Z,9.99
2023-02-22T10:59:02.788Z,10.04
2023-02-22T11:01:31.125Z,10.07
2023-02-22T11:04:22.952Z,10.14
2023-02-22T11:07:27.602Z,10.21
2023-02-22T11:10:09.765Z,10.26
2023-02-22T11:12:39.691Z,10.31
2023-02-22T11:15:16.985Z,10.32
2023-02-22T11:17:48.097Z,10.32
2023-02-22T11:20:25.697Z,10.31
2023-02-22T11:22:58.187Z,10.30
2023-02-22T11:25:32.569Z,10.34
2023-02-22T11:28:20.766Z,10.35
2023-02-22T11:30:52.355Z,10.33
2023-02-22T11:33:24.944Z,10.32
2023-02-22T11:35:54.272Z,10.35
2023-02-22T11:38:25.232Z,10.40
2023-02-22T11:41:14.776Z,10.42
2023-02-22T11:43:54.493Z,10.43
2023-02-22T11:46:29.155Z,10.46
2023-02-22T11:49:01.250Z,10.50
2023-02-22T11:51:35.571Z,10.48
2023-02-22T11:54:25.663Z,10.47
2023-02-22T11:57:08.476Z,10.47
2023-02-22T11:59:55.965Z,10.51
2023-02-22T12:02:56.918Z,10.49
2023-02-22T12:05:31.087Z,10.46
2023-02-22T12:08:30.112Z,10.39
2023-02-22T12:11:12.582Z,10.40
2023-02-22T12:13:45.573Z,10.44
2023-02-22T12:16:32.033Z,10.45
2023-02-22T12:19:02.853Z,10.47
2023-02-22T12:21:34.541Z,10.46
2023-02-22T12:24:14.457Z,10.43
2023-02-22T12:26:47.243Z,10.35
2023-02-22T12:29:37.727Z,10.29
2023-02-22T12:32:32.894Z,10.30
2023-02-22T12:35:12.992Z,10.30
2023-02-22T12:38:01.875Z,10.39
2023-02-22T12:40:29.819Z,10.43
2023-02-22T12:43:18.090Z,10.44
2023-02-22T12:45:55.298Z,10.44
2023-02-22T12:49:17.825Z,10.42
2023-02-22T12:51:57.598Z,10.42
2023-02-22T12:54:25.846Z,10.45
2023-02-22T12:57:03.439Z,10.48
2023-02-22T12:59:38.111Z,10.49
2023-02-22T13:02:30.898Z,10.52
2023-02-22T13:05:01.371Z,10.56
2023-02-22T13:07:51.292Z,10.61
2023-02-22T13:10:28.370Z,10.64
2023-02-22T13:13:21.622Z,10.68
2023-02-22T13:15:52.131Z,10.68
2023-02-22T13:18:35.384Z,10.66
2023-02-22T13:21:27.992Z,10.66
2023-02-22T13:24:45.245Z,10.71
2023-02-22T13:27:21.561Z,10.72
2023-02-22T13:29:58.090Z,10.72
2023-02-22T13:32:51.584Z,10.72
2023-02-22T13:35:41.319Z,10.73
2023-02-22T13:38:47.410Z,10.74
2023-02-22T13:41:24.141Z,10.74
2023-02-22T13:44:16.858Z,10.78
2023-02-22T13:47:04.108Z,10.76
2023-02-22T13:49:52.661Z,10.76
2023-02-22T13:52:26.643Z,10.72
2023-02-22T13:55:00.387Z,10.68
2023-02-22T13:57:37.079Z,10.67
2023-02-22T14:00:21.256Z,10.70
2023-02-22T14:03:09.108Z,10.73
2023-02-22T14:05:37.582Z,10.71
2023-02-22T14:08:07.197Z,10.70
2023-02-22T14:10:59.593Z,10.69
2023-02-22T14:13:57.257Z,10.68
2023-02-22T14:16:28.917Z,10.67
2023-02-22T14:19:20.473Z,10.67
2023-02-22T14:22:03.038Z,10.62
2023-02-22T14:24:44.403Z,10.60
2023-02-22T14:27:13.908Z,10.59
2023-02-22T14:29:54.429Z,10.58
2023-02-22T14:32:31.996Z,10.60
2023-02-22T14:35:27.439Z,10.60
2023-02-22T14:38:02.077Z,10.57
2023-02-22T14:40:32.556Z,10.70
2023-02-22T14:43:12.871Z,10.86
2023-02-22T14:45:53.983Z,10.98
2023-02-22T14:48:39.577Z,11.09
2023-02-22T14:51:22.207Z,11.16
2023-02-22T14:54:21.110Z,11.11
2023-02-22T14:57:12.185Z,11.12
2023-02-22T15:00:22.753Z,11.14
2023-02-22T15:02:57.353Z,11.00
2023-02-22T15:05:38.503Z,10.90
2023-02-22T15:08:08.185Z,10.85
2023-02-22T15:10:46.048Z,10.77
2023-02-22T15:13:15.838Z,10.71
2023-02-22T15:15:49.746Z,10.66
2023-02-22T15:18:22.116Z,10.62
2023-02-22T15:20:57.730Z,10.61
2023-02-22T15:23:30.446Z,10.57
2023-02-22T15:25:58.577Z,10.51
2023-02-22T15:28:32.921Z,10.47
2023-02-22T15:31:17.466Z,10.42
2023-02-22T15:33:46.296Z,10.35
2023-02-22T15:36:17.864Z,10.34
2023-02-22T15:38:50.564Z,10.29
2023-02-22T15:41:28.317Z,10.25
2023-02-22T15:44:07.882Z,10.21
2023-02-22T15:46:45.589Z,10.19
2023-02-22T15:49:13.412Z,10.17
2023-02-22T15:51:46.508Z,10.10
2023-02-22T15:54:27.009Z,10.03
2023-02-22T15:56:56.544Z,9.97
2023-02-22T15:59:30.525Z,9.90
2023-02-22T16:01:59.918Z,9.84
2023-02-22T16:04:31.219Z,9.79
2023-02-22T16:07:17.225Z,9.76
2023-02-22T16:09:50.112Z,9.67
2023-02-22T16:12:21.005Z,9.59
2023-02-22T16:14:50.021Z,9.56
2023-02-22T16:17:35.346Z,9.51
2023-02-22T16:20:12.281Z,9.42
2023-02-22T16:22:46.800Z,9.34
2023-02-22T16:25:37.323Z,9.30
2023-02-22T16:28:33.953Z,9.25
2023-02-22T16:31:03.410Z,9.16
2023-02-22T16:33:34.147Z,9.11
2023-02-22T16:36:06.523Z,9.03
2023-02-22T16:38:38.556Z,8.94
2023-02-22T16:41:07.658Z,8.90
2023-02-22T16:43:36.323Z,8.83
2023-02-22T16:46:07.060Z,8.74
2023-02-22T16:48:38.489Z,8.70
2023-02-22T16:51:22.015Z,8.66
2023-02-22T16:53:53.080Z,8.59
2023-02-22T16:56:22.769Z,8.55
2023-02-22T16:58:52.796Z,8.52
2023-02-22T17:01:23.385Z,8.50
2023-02-22T17:03:53.903Z,8.46
2023-02-22T17:06:22.617Z,8.42
2023-02-22T17:08:52.389Z,8.37
2023-02-22T17:11:21.118Z,8.32
2023-02-22T17:13:51.900Z,8.30
2023-02-22T17:16:20.244Z,8.26
2023-02-22T17:18:49.916Z,8.23
2023-02-22T17:21:17.998Z,8.20
2023-02-22T17:23:47.105Z,8.15
2023-02-22T17:26:17.277Z,8.08
2023-02-22T17:28:46.198Z,8.03
2023-02-22T17:31:23.932Z,7.99
2023-02-22T17:33:52.522Z,7.90
2023-02-22T17:36:21.131Z,7.83
2023-02-22T17:38:50.068Z,7.74
2023-02-22T17:41:18.385Z,7.66
2023-02-22T17:43:46.525Z,7.61
2023-02-22T17:46:14.809Z,7.58
2023-02-22T17:48:43.095Z,7.56
2023-02-22T17:51:12.537Z,7.55
2023-02-22T17:53:40.900Z,7.52
2023-02-22T17:56:13.582Z,7.49
2023-02-22T17:58:41.563Z,7.47
2023-02-22T18:01:29.495Z,7.44
2023-02-22T18:04:03.005Z,7.40
2023-02-22T18:06:32.816Z,7.35
2023-02-22T18:09:01.125Z,7.34
2023-02-22T18:11:32.759Z,7.30
2023-02-22T18:14:00.981Z,7.24
2023-02-22T18:16:32.037Z,7.15
2023-02-22T18:19:01.679Z,7.12
2023-02-22T18:21:29.645Z,7.09
2023-02-22T18:23:58.137Z,7.02
2023-02-22T18:26:26.741Z,6.97
2023-02-22T18:28:55.177Z,6.93
2023-02-22T18:31:23.897Z,6.90
2023-02-22T18:33:53.396Z,6.86
2023-02-22T18:36:23.438Z,6.85
2023-02-22T18:38:53.747Z,6.85
2023-02-22T18:41:26.555Z,6.87
2023-02-22T18:44:00.661Z,6.83
2023-02-22T18:46:30.385Z,6.76
2023-02-22T18:49:02.102Z,6.67
2023-02-22T18:51:30.808Z,6.58
2023-02-22T18:54:02.533Z,6.50
2023-02-22T18:56:41.180Z,6.45
2023-02-22T18:59:12.376Z,6.36
2023-02-22T19:01:49.075Z,6.29
2023-02-22T19:04:19.253Z,6.22
2023-02-22T19:06:49.926Z,6.19
2023-02-22T19:09:17.757Z,6.13
2023-02-22T19:11:46.850Z,6.07
2023-02-22T19:14:16.859Z,6.06
2023-02-22T19:16:46.491Z,6.06
2023-02-22T19:19:15.116Z,6.02
2023-02-22T19:21:45.106Z,6.00
2023-02-22T19:24:13.407Z,5.96
2023-02-22T19:26:50.606Z,5.97
2023-02-22T19:29:22.270Z,6.00
2023-02-22T19:31:53.895Z,6.05
2023-02-22T19:34:24.418Z,6.05
2023-02-22T19:36:55.971Z,6.02
2023-02-22T19:39:53.408Z,5.98
2023-02-22T19:42:21.376Z,5.96
2023-02-22T19:44:53.907Z,5.88
2023-02-22T19:47:22.642Z,5.75
2023-02-22T19:49:50.797Z,5.70
2023-02-22T19:52:18.933Z,5.66
2023-02-22T19:54:46.929Z,5.62
2023-02-22T19:57:14.985Z,5.59
2023-02-22T19:59:42.973Z,5.61
2023-02-22T20:02:11.995Z,5.57
2023-02-22T20:04:41.942Z,5.52
2023-02-22T20:07:12.863Z,5.45
2023-02-22T20:09:40.948Z,5.39
2023-02-22T20:12:09.867Z,5.31
2023-02-22T20:14:38.778Z,5.27
2023-02-22T20:17:07.908Z,5.18
2023-02-22T20:19:37.752Z,5.12
2023-02-22T20:22:08.895Z,5.07
2023-02-22T20:24:36.915Z,5.06
2023-02-22T20:27:04.797Z,5.04
2023-02-22T20:29:41.460Z,5.01
2023-02-22T20:32:15.334Z,4.98
2023-02-22T20:34:47.592Z,4.94
2023-02-22T20:37:15.949Z,4.87
2023-02-22T20:39:44.539Z,4.84
2023-02-22T20:42:12.414Z,4.84
2023-02-22T20:44:40.384Z,4.84
2023-02-22T20:47:08.669Z,4.80
2023-02-22T20:49:37.000Z,4.74
2023-02-22T20:52:05.051Z,4.66
2023-02-22T20:54:34.517Z,4.62
2023-02-22T20:57:02.585Z,4.63
2023-02-22T20:59:30.688Z,4.70
2023-02-22T21:01:58.527Z,4.77
2023-02-22T21:04:29.333Z,4.80
2023-02-22T21:06:57.253Z,4.79
2023-02-22T21:09:25.234Z,4.71
2023-02-22T21:11:53.203Z,4.68
2023-02-22T21:14:21.102Z,4.62
2023-02-22T21:16:53.279Z,4.63
2023-02-22T21:19:27.045Z,4.61
2023-02-22T21:21:57.991Z,4.58
2023-02-22T21:24:26.809Z,4.54
2023-02-22T21:26:59.166Z,4.52
2023-02-22T21:29:30.870Z,4.48
2023-02-22T21:32:00.065Z,4.42
2023-02-22T21:34:28.267Z,4.41
2023-02-22T21:36:56.879Z,4.37
2023-02-22T21:39:28.602Z,4.38
2023-02-22T21:42:00.809Z,4.36
2023-02-22T21:44:30.055Z,4.35
2023-02-22T21:46:58.101Z,4.34
2023-02-22T21:49:26.343Z,4.33
2023-02-22T21:51:54.719Z,4.31
2023-02-22T21:54:23.250Z,4.29
2023-02-22T21:56:51.462Z,4.23
2023-02-22T21:59:22.576Z,4.27
2023-02-22T22:01:56.075Z,4.27
2023-02-22T22:04:30.720Z,4.22
2023-02-22T22:07:01.743Z,4.19
2023-02-22T22:09:33.228Z,4.15
2023-02-22T22:12:05.272Z,4.15
2023-02-22T22:14:34.820Z,4.13
2023-02-22T22:17:05.740Z,4.11
2023-02-22T22:19:38.484Z,4.17
2023-02-22T22:22:08.019Z,4.20
2023-02-22T22:24:36.511Z,4.17
2023-02-22T22:27:06.505Z,4.14
2023-02-22T22:29:34.675Z,4.13
2023-02-22T22:32:03.561Z,4.10
2023-02-22T22:34:34.499Z,4.09
2023-02-22T22:37:03.095Z,4.07
2023-02-22T22:39:31.482Z,4.07
2023-02-22T22:41:59.382Z,4.01
2023-02-22T22:44:32.679Z,3.96
2023-02-22T22:47:01.394Z,3.92
2023-02-22T22:49:31.517Z,3.90
2023-02-22T22:51:59.807Z,3.90
2023-02-22T22:54:28.893Z,3.89
2023-02-22T22:56:56.836Z,3.90
2023-02-22T22:59:24.953Z,3.88
2023-02-22T23:01:56.670Z,3.90
2023-02-22T23:04:25.622Z,3.91
2023-02-22T23:06:54.666Z,3.92
2023-02-22T23:09:22.471Z,3.95
2023-02-22T23:11:53.709Z,3.96
2023-02-22T23:14:31.253Z,3.98
2023-02-22T23:17:03.835Z,3.97
2023-02-22T23:19:33.967Z,3.94
2023-02-22T23:22:05.453Z,3.95
2023-02-22T23:24:36.313Z,3.94
2023-02-22T23:27:10.808Z,3.92
2023-02-22T23:29:41.125Z,3.90
2023-02-22T23:32:09.446Z,3.87
2023-02-22T23:34:41.582Z,3.84
2023-02-22T23:37:10.858Z,3.81
2023-02-22T23:39:39.113Z,3.78
2023-02-22T23:42:10.539Z,3.79
2023-02-22T23:44:40.234Z,3.77
2023-02-22T23:47:09.624Z,3.76
2023-02-22T23:49:38.986Z,3.76
2023-02-22T23:52:08.801Z,3.74
2023-02-22T23:54:43.875Z,3.69
2023-02-22T23:57:12.072Z,3.67
2023-02-22T23:59:40.588Z,3.68
